sensor_id;sensor_type;location;lat;lon;timestamp;P1;durP1;ratioP1;P2;durP2;ratioP2
68854;SDS011;69984;-43.570;172.580;2023-06-14T00:01:09;1.30;;;0.85;;
68854;SDS011;69984;-43.570;172.580;2023-06-14T00:04:24;4.78;;;1.00;;
68854;SDS011;69984;-43.570;172.580;2023-06-14T00:06:58;0.77;;;0.70;;
68854;SDS011;69984;-43.570;172.580;2023-06-14T00:09:26;1.25;;;0.70;;
68854;SDS011;69984;-43.570;172.580;2023-06-14T00:12:17;1.23;;;0.93;;
68854;SDS011;69984;-43.570;172.580;2023-06-14T00:14:44;3.92;;;0.93;;
68854;SDS011;69984;-43.570;172.580;2023-06-14T00:17:17;1.63;;;0.98;;
68854;SDS011;69984;-43.570;172.580;2023-06-14T00:20:02;3.58;;;1.10;;
68854;SDS011;69984;-43.570;172.580;2023-06-14T00:23:01;3.10;;;1.65;;
68854;SDS011;69984;-43.570;172.580;2023-06-14T00:25:28;2.78;;;1.27;;
68854;SDS011;69984;-43.570;172.580;2023-06-14T00:27:57;1.17;;;0.98;;
68854;SDS011;69984;-43.570;172.580;2023-06-14T00:30:24;4.72;;;0.95;;
68854;SDS011;69984;-43.570;172.580;2023-06-14T00:32:56;2.83;;;0.80;;
68854;SDS011;69984;-43.570;172.580;2023-06-14T00:35:41;1.48;;;0.75;;
68854;SDS011;69984;-43.570;172.580;2023-06-14T00:38:08;1.98;;;0.65;;
68854;SDS011;69984;-43.570;172.580;2023-06-14T00:40:35;1.20;;;0.70;;
68854;SDS011;69984;-43.570;172.580;2023-06-14T00:43:08;10.93;;;0.63;;
68854;SDS011;69984;-43.570;172.580;2023-06-14T00:45:47;0.50;;;0.50;;
68854;SDS011;69984;-43.570;172.580;2023-06-14T00:48:20;8.45;;;2.45;;
68854;SDS011;69984;-43.570;172.580;2023-06-14T00:50:49;1.90;;;0.80;;
68854;SDS011;69984;-43.570;172.580;2023-06-14T00:53:23;4.05;;;0.50;;
68854;SDS011;69984;-43.570;172.580;2023-06-14T00:56:11;1.92;;;0.40;;
68854;SDS011;69984;-43.570;172.580;2023-06-14T00:58:40;1.27;;;0.52;;
68854;SDS011;69984;-43.570;172.580;2023-06-14T01:01:15;0.60;;;0.30;;
68854;SDS011;69984;-43.570;172.580;2023-06-14T01:03:42;0.93;;;0.43;;
68854;SDS011;69984;-43.570;172.580;2023-06-14T01:06:19;1.20;;;0.40;;
68854;SDS011;69984;-43.570;172.580;2023-06-14T01:11:50;0.90;;;0.30;;
68854;SDS011;69984;-43.570;172.580;2023-06-14T01:14:54;1.63;;;0.40;;
68854;SDS011;69984;-43.570;172.580;2023-06-14T01:17:29;2.03;;;0.68;;
68854;SDS011;69984;-43.570;172.580;2023-06-14T01:19:58;3.30;;;0.65;;
68854;SDS011;69984;-43.570;172.580;2023-06-14T01:22:28;0.57;;;0.40;;
68854;SDS011;69984;-43.570;172.580;2023-06-14T01:25:01;0.75;;;0.50;;
68854;SDS011;69984;-43.570;172.580;2023-06-14T01:27:34;2.30;;;0.73;;
68854;SDS011;69984;-43.570;172.580;2023-06-14T01:30:01;3.03;;;0.47;;
68854;SDS011;69984;-43.570;172.580;2023-06-14T01:32:47;4.60;;;0.68;;
68854;SDS011;69984;-43.570;172.580;2023-06-14T01:35:22;1.63;;;0.63;;
68854;SDS011;69984;-43.570;172.580;2023-06-14T01:37:49;5.57;;;0.70;;
68854;SDS011;69984;-43.570;172.580;2023-06-14T01:40:17;0.98;;;0.50;;
68854;SDS011;69984;-43.570;172.580;2023-06-14T01:42:57;1.88;;;0.60;;
68854;SDS011;69984;-43.570;172.580;2023-06-14T01:45:30;1.55;;;0.80;;
68854;SDS011;69984;-43.570;172.580;2023-06-14T01:48:16;4.22;;;0.77;;
68854;SDS011;69984;-43.570;172.580;2023-06-14T01:51:01;6.07;;;1.40;;
68854;SDS011;69984;-43.570;172.580;2023-06-14T01:53:40;4.05;;;0.70;;
68854;SDS011;69984;-43.570;172.580;2023-06-14T01:56:13;0.63;;;0.55;;
68854;SDS011;69984;-43.570;172.580;2023-06-14T01:58:47;0.70;;;0.60;;
68854;SDS011;69984;-43.570;172.580;2023-06-14T02:01:20;7.15;;;0.75;;
68854;SDS011;69984;-43.570;172.580;2023-06-14T02:03:48;2.28;;;0.90;;
68854;SDS011;69984;-43.570;172.580;2023-06-14T02:06:27;2.05;;;0.80;;
68854;SDS011;69984;-43.570;172.580;2023-06-14T02:09:00;2.45;;;0.70;;
68854;SDS011;69984;-43.570;172.580;2023-06-14T02:11:39;2.55;;;0.55;;
68854;SDS011;69984;-43.570;172.580;2023-06-14T02:14:06;2.38;;;0.40;;
68854;SDS011;69984;-43.570;172.580;2023-06-14T02:16:45;4.18;;;0.52;;
68854;SDS011;69984;-43.570;172.580;2023-06-14T02:19:18;0.40;;;0.40;;
68854;SDS011;69984;-43.570;172.580;2023-06-14T02:21:52;1.00;;;0.60;;
68854;SDS011;69984;-43.570;172.580;2023-06-14T02:24:25;1.25;;;0.38;;
68854;SDS011;69984;-43.570;172.580;2023-06-14T02:27:10;0.52;;;0.30;;
68854;SDS011;69984;-43.570;172.580;2023-06-14T02:29:49;1.23;;;0.47;;
68854;SDS011;69984;-43.570;172.580;2023-06-14T02:32:22;1.05;;;0.40;;
68854;SDS011;69984;-43.570;172.580;2023-06-14T02:34:49;1.35;;;0.40;;
68854;SDS011;69984;-43.570;172.580;2023-06-14T02:37:29;7.93;;;0.55;;
68854;SDS011;69984;-43.570;172.580;2023-06-14T02:40:01;0.57;;;0.38;;
68854;SDS011;69984;-43.570;172.580;2023-06-14T02:42:29;0.93;;;0.32;;
68854;SDS011;69984;-43.570;172.580;2023-06-14T02:44:56;1.48;;;0.40;;
68854;SDS011;69984;-43.570;172.580;2023-06-14T02:47:23;2.42;;;0.32;;
68854;SDS011;69984;-43.570;172.580;2023-06-14T02:49:51;0.75;;;0.22;;
68854;SDS011;69984;-43.570;172.580;2023-06-14T02:52:42;2.15;;;0.50;;
68854;SDS011;69984;-43.570;172.580;2023-06-14T02:55:21;1.92;;;0.50;;
68854;SDS011;69984;-43.570;172.580;2023-06-14T02:57:54;2.70;;;0.65;;
68854;SDS011;69984;-43.570;172.580;2023-06-14T03:00:26;0.52;;;0.20;;
68854;SDS011;69984;-43.570;172.580;2023-06-14T03:03:06;3.28;;;0.80;;
68854;SDS011;69984;-43.570;172.580;2023-06-14T03:05:53;1.17;;;0.40;;
68854;SDS011;69984;-43.570;172.580;2023-06-14T03:08:21;1.38;;;0.47;;
68854;SDS011;69984;-43.570;172.580;2023-06-14T03:10:58;4.50;;;0.28;;
68854;SDS011;69984;-43.570;172.580;2023-06-14T03:13:27;0.55;;;0.50;;
68854;SDS011;69984;-43.570;172.580;2023-06-14T03:16:01;0.57;;;0.38;;
68854;SDS011;69984;-43.570;172.580;2023-06-14T03:18:34;1.15;;;0.50;;
68854;SDS011;69984;-43.570;172.580;2023-06-14T03:21:07;0.60;;;0.50;;
68854;SDS011;69984;-43.570;172.580;2023-06-14T03:23:47;0.73;;;0.30;;
68854;SDS011;69984;-43.570;172.580;2023-06-14T03:26:15;1.08;;;0.40;;
68854;SDS011;69984;-43.570;172.580;2023-06-14T03:28:45;2.05;;;0.30;;
68854;SDS011;69984;-43.570;172.580;2023-06-14T03:31:24;5.13;;;0.50;;
68854;SDS011;69984;-43.570;172.580;2023-06-14T03:34:07;0.63;;;0.40;;
68854;SDS011;69984;-43.570;172.580;2023-06-14T03:36:34;1.33;;;0.40;;
68854;SDS011;69984;-43.570;172.580;2023-06-14T03:39:50;0.82;;;0.50;;
68854;SDS011;69984;-43.570;172.580;2023-06-14T03:42:17;2.13;;;0.50;;
68854;SDS011;69984;-43.570;172.580;2023-06-14T03:44:44;2.58;;;0.30;;
68854;SDS011;69984;-43.570;172.580;2023-06-14T03:47:11;3.63;;;0.50;;
68854;SDS011;69984;-43.570;172.580;2023-06-14T03:49:44;2.22;;;0.85;;
68854;SDS011;69984;-43.570;172.580;2023-06-14T03:52:11;1.67;;;0.57;;
68854;SDS011;69984;-43.570;172.580;2023-06-14T03:54:39;4.10;;;0.43;;
68854;SDS011;69984;-43.570;172.580;2023-06-14T03:57:12;4.65;;;0.50;;
68854;SDS011;69984;-43.570;172.580;2023-06-14T04:00:04;2.83;;;0.70;;
68854;SDS011;69984;-43.570;172.580;2023-06-14T04:02:31;2.75;;;0.70;;
68854;SDS011;69984;-43.570;172.580;2023-06-14T04:04:58;1.92;;;0.85;;
68854;SDS011;69984;-43.570;172.580;2023-06-14T04:07:25;1.25;;;0.85;;
68854;SDS011;69984;-43.570;172.580;2023-06-14T04:10:12;1.00;;;0.60;;
68854;SDS011;69984;-43.570;172.580;2023-06-14T04:12:51;0.85;;;0.60;;
68854;SDS011;69984;-43.570;172.580;2023-06-14T04:15:24;2.00;;;0.75;;
68854;SDS011;69984;-43.570;172.580;2023-06-14T04:17:57;2.00;;;0.60;;
68854;SDS011;69984;-43.570;172.580;2023-06-14T04:20:24;2.05;;;0.70;;
68854;SDS011;69984;-43.570;172.580;2023-06-14T04:23:10;3.60;;;0.85;;
68854;SDS011;69984;-43.570;172.580;2023-06-14T04:25:41;2.92;;;1.10;;
68854;SDS011;69984;-43.570;172.580;2023-06-14T04:28:11;1.98;;;0.88;;
68854;SDS011;69984;-43.570;172.580;2023-06-14T04:30:47;2.60;;;1.00;;
68854;SDS011;69984;-43.570;172.580;2023-06-14T04:33:35;7.07;;;1.48;;
68854;SDS011;69984;-43.570;172.580;2023-06-14T04:36:12;3.67;;;1.42;;
68854;SDS011;69984;-43.570;172.580;2023-06-14T04:38:43;2.10;;;1.20;;
68854;SDS011;69984;-43.570;172.580;2023-06-14T04:41:24;6.50;;;1.30;;
68854;SDS011;69984;-43.570;172.580;2023-06-14T04:43:56;3.85;;;1.50;;
68854;SDS011;69984;-43.570;172.580;2023-06-14T04:46:29;2.45;;;1.58;;
68854;SDS011;69984;-43.570;172.580;2023-06-14T04:49:17;6.22;;;3.10;;
68854;SDS011;69984;-43.570;172.580;2023-06-14T04:52:10;4.65;;;3.05;;
68854;SDS011;69984;-43.570;172.580;2023-06-14T04:54:39;3.05;;;2.40;;
68854;SDS011;69984;-43.570;172.580;2023-06-14T04:57:12;3.20;;;2.15;;
68854;SDS011;69984;-43.570;172.580;2023-06-14T04:59:40;4.03;;;2.13;;
68854;SDS011;69984;-43.570;172.580;2023-06-14T05:02:25;8.23;;;2.10;;
68854;SDS011;69984;-43.570;172.580;2023-06-14T05:04:58;1.90;;;1.73;;
68854;SDS011;69984;-43.570;172.580;2023-06-14T05:07:43;4.90;;;2.10;;
68854;SDS011;69984;-43.570;172.580;2023-06-14T05:10:22;2.03;;;1.75;;
68854;SDS011;69984;-43.570;172.580;2023-06-14T05:13:01;3.30;;;2.13;;
68854;SDS011;69984;-43.570;172.580;2023-06-14T05:15:29;4.88;;;2.13;;
68854;SDS011;69984;-43.570;172.580;2023-06-14T05:17:56;5.30;;;2.50;;
68854;SDS011;69984;-43.570;172.580;2023-06-14T05:20:29;2.55;;;2.35;;
68854;SDS011;69984;-43.570;172.580;2023-06-14T05:22:56;4.32;;;2.70;;
68854;SDS011;69984;-43.570;172.580;2023-06-14T05:25:23;4.65;;;2.30;;
68854;SDS011;69984;-43.570;172.580;2023-06-14T05:27:56;3.60;;;2.10;;
68854;SDS011;69984;-43.570;172.580;2023-06-14T05:30:30;5.38;;;3.28;;
68854;SDS011;69984;-43.570;172.580;2023-06-14T05:35:39;4.00;;;2.75;;
68854;SDS011;69984;-43.570;172.580;2023-06-14T05:38:05;5.22;;;3.13;;
68854;SDS011;69984;-43.570;172.580;2023-06-14T05:40:51;3.17;;;2.85;;
68854;SDS011;69984;-43.570;172.580;2023-06-14T05:43:25;2.30;;;2.10;;
68854;SDS011;69984;-43.570;172.580;2023-06-14T05:45:52;3.83;;;2.50;;
68854;SDS011;69984;-43.570;172.580;2023-06-14T05:48:19;6.90;;;3.40;;
68854;SDS011;69984;-43.570;172.580;2023-06-14T05:50:46;7.15;;;3.17;;
68854;SDS011;69984;-43.570;172.580;2023-06-14T05:53:26;6.13;;;2.47;;
68854;SDS011;69984;-43.570;172.580;2023-06-14T05:55:59;4.97;;;2.88;;
68854;SDS011;69984;-43.570;172.580;2023-06-14T05:58:26;6.00;;;3.20;;
68854;SDS011;69984;-43.570;172.580;2023-06-14T06:01:05;5.60;;;2.78;;
68854;SDS011;69984;-43.570;172.580;2023-06-14T06:03:32;4.32;;;2.67;;
68854;SDS011;69984;-43.570;172.580;2023-06-14T06:05:59;6.57;;;2.70;;
68854;SDS011;69984;-43.570;172.580;2023-06-14T06:08:32;8.05;;;2.25;;
68854;SDS011;69984;-43.570;172.580;2023-06-14T06:11:04;2.85;;;1.83;;
68854;SDS011;69984;-43.570;172.580;2023-06-14T06:13:42;5.07;;;1.67;;
68854;SDS011;69984;-43.570;172.580;2023-06-14T06:16:16;3.53;;;1.60;;
68854;SDS011;69984;-43.570;172.580;2023-06-14T06:18:48;2.33;;;1.63;;
68854;SDS011;69984;-43.570;172.580;2023-06-14T06:21:27;2.10;;;1.00;;
68854;SDS011;69984;-43.570;172.580;2023-06-14T06:24:07;1.42;;;1.27;;
68854;SDS011;69984;-43.570;172.580;2023-06-14T06:26:52;0.80;;;0.70;;
68854;SDS011;69984;-43.570;172.580;2023-06-14T06:29:26;1.80;;;1.05;;
68854;SDS011;69984;-43.570;172.580;2023-06-14T06:32:11;2.25;;;1.17;;
68854;SDS011;69984;-43.570;172.580;2023-06-14T06:34:50;4.72;;;1.00;;
68854;SDS011;69984;-43.570;172.580;2023-06-14T06:37:17;1.95;;;0.90;;
68854;SDS011;69984;-43.570;172.580;2023-06-14T06:39:45;1.27;;;1.17;;
68854;SDS011;69984;-43.570;172.580;2023-06-14T06:42:13;2.22;;;0.88;;
68854;SDS011;69984;-43.570;172.580;2023-06-14T06:44:40;3.65;;;1.20;;
68854;SDS011;69984;-43.570;172.580;2023-06-14T06:47:07;4.50;;;1.15;;
68854;SDS011;69984;-43.570;172.580;2023-06-14T06:49:36;3.97;;;1.27;;
68854;SDS011;69984;-43.570;172.580;2023-06-14T06:52:04;2.70;;;1.10;;
68854;SDS011;69984;-43.570;172.580;2023-06-14T06:54:44;1.67;;;0.90;;
68854;SDS011;69984;-43.570;172.580;2023-06-14T06:57:12;1.50;;;1.23;;
68854;SDS011;69984;-43.570;172.580;2023-06-14T06:59:39;1.17;;;0.90;;
68854;SDS011;69984;-43.570;172.580;2023-06-14T07:02:06;1.83;;;1.00;;
68854;SDS011;69984;-43.570;172.580;2023-06-14T07:04:33;2.20;;;1.15;;
68854;SDS011;69984;-43.570;172.580;2023-06-14T07:07:01;1.83;;;1.55;;
68854;SDS011;69984;-43.570;172.580;2023-06-14T07:09:40;1.70;;;0.90;;
68854;SDS011;69984;-43.570;172.580;2023-06-14T07:12:07;5.28;;;1.02;;
68854;SDS011;69984;-43.570;172.580;2023-06-14T07:14:47;4.10;;;1.10;;
68854;SDS011;69984;-43.570;172.580;2023-06-14T07:17:14;3.33;;;1.08;;
68854;SDS011;69984;-43.570;172.580;2023-06-14T07:19:41;2.45;;;1.00;;
68854;SDS011;69984;-43.570;172.580;2023-06-14T07:22:08;3.45;;;1.15;;
68854;SDS011;69984;-43.570;172.580;2023-06-14T07:24:35;1.60;;;0.80;;
68854;SDS011;69984;-43.570;172.580;2023-06-14T07:27:02;1.05;;;0.70;;
68854;SDS011;69984;-43.570;172.580;2023-06-14T07:29:29;4.15;;;0.88;;
68854;SDS011;69984;-43.570;172.580;2023-06-14T07:31:56;3.80;;;0.85;;
68854;SDS011;69984;-43.570;172.580;2023-06-14T07:34:23;2.42;;;0.70;;
68854;SDS011;69984;-43.570;172.580;2023-06-14T07:36:51;5.20;;;0.80;;
68854;SDS011;69984;-43.570;172.580;2023-06-14T07:39:19;2.85;;;1.00;;
68854;SDS011;69984;-43.570;172.580;2023-06-14T07:41:47;1.00;;;0.73;;
68854;SDS011;69984;-43.570;172.580;2023-06-14T07:44:13;3.65;;;0.80;;
68854;SDS011;69984;-43.570;172.580;2023-06-14T07:46:41;2.88;;;0.80;;
68854;SDS011;69984;-43.570;172.580;2023-06-14T07:49:08;3.15;;;0.82;;
68854;SDS011;69984;-43.570;172.580;2023-06-14T07:51:35;1.67;;;0.80;;
68854;SDS011;69984;-43.570;172.580;2023-06-14T07:54:03;5.47;;;0.90;;
68854;SDS011;69984;-43.570;172.580;2023-06-14T07:56:32;1.23;;;0.63;;
68854;SDS011;69984;-43.570;172.580;2023-06-14T07:58:59;0.88;;;0.63;;
68854;SDS011;69984;-43.570;172.580;2023-06-14T08:01:32;4.00;;;0.43;;
68854;SDS011;69984;-43.570;172.580;2023-06-14T08:03:59;1.63;;;0.60;;
68854;SDS011;69984;-43.570;172.580;2023-06-14T08:06:26;1.42;;;1.20;;
68854;SDS011;69984;-43.570;172.580;2023-06-14T08:08:54;12.90;;;0.70;;
68854;SDS011;69984;-43.570;172.580;2023-06-14T08:11:21;0.82;;;0.50;;
68854;SDS011;69984;-43.570;172.580;2023-06-14T08:13:49;1.80;;;0.70;;
68854;SDS011;69984;-43.570;172.580;2023-06-14T08:16:17;3.95;;;1.27;;
68854;SDS011;69984;-43.570;172.580;2023-06-14T08:18:44;6.07;;;0.73;;
68854;SDS011;69984;-43.570;172.580;2023-06-14T08:21:11;5.03;;;0.80;;
68854;SDS011;69984;-43.570;172.580;2023-06-14T08:23:40;1.98;;;1.00;;
68854;SDS011;69984;-43.570;172.580;2023-06-14T08:26:10;1.92;;;0.88;;
68854;SDS011;69984;-43.570;172.580;2023-06-14T08:28:37;4.25;;;1.13;;
68854;SDS011;69984;-43.570;172.580;2023-06-14T08:31:04;2.78;;;0.82;;
68854;SDS011;69984;-43.570;172.580;2023-06-14T08:33:31;0.95;;;0.60;;
68854;SDS011;69984;-43.570;172.580;2023-06-14T08:36:01;1.08;;;0.60;;
68854;SDS011;69984;-43.570;172.580;2023-06-14T08:38:28;0.57;;;0.57;;
68854;SDS011;69984;-43.570;172.580;2023-06-14T08:40:56;1.52;;;0.70;;
68854;SDS011;69984;-43.570;172.580;2023-06-14T08:43:24;1.02;;;0.75;;
68854;SDS011;69984;-43.570;172.580;2023-06-14T08:45:53;0.90;;;0.68;;
68854;SDS011;69984;-43.570;172.580;2023-06-14T08:48:26;2.17;;;0.82;;
68854;SDS011;69984;-43.570;172.580;2023-06-14T08:50:56;1.23;;;0.60;;
68854;SDS011;69984;-43.570;172.580;2023-06-14T08:53:30;1.70;;;1.08;;
68854;SDS011;69984;-43.570;172.580;2023-06-14T08:55:59;3.03;;;0.93;;
68854;SDS011;69984;-43.570;172.580;2023-06-14T08:58:30;1.20;;;1.10;;
68854;SDS011;69984;-43.570;172.580;2023-06-14T09:01:00;1.85;;;1.23;;
68854;SDS011;69984;-43.570;172.580;2023-06-14T09:03:28;1.80;;;0.90;;
68854;SDS011;69984;-43.570;172.580;2023-06-14T09:05:56;1.35;;;1.00;;
68854;SDS011;69984;-43.570;172.580;2023-06-14T09:08:27;4.80;;;0.80;;
68854;SDS011;69984;-43.570;172.580;2023-06-14T09:10:57;2.78;;;0.73;;
68854;SDS011;69984;-43.570;172.580;2023-06-14T09:13:24;3.53;;;0.88;;
68854;SDS011;69984;-43.570;172.580;2023-06-14T09:15:53;1.92;;;0.80;;
68854;SDS011;69984;-43.570;172.580;2023-06-14T09:18:21;2.50;;;0.80;;
68854;SDS011;69984;-43.570;172.580;2023-06-14T09:20:48;2.67;;;0.90;;
68854;SDS011;69984;-43.570;172.580;2023-06-14T09:23:20;3.13;;;1.08;;
68854;SDS011;69984;-43.570;172.580;2023-06-14T09:25:47;4.45;;;0.90;;
68854;SDS011;69984;-43.570;172.580;2023-06-14T09:28:14;11.02;;;1.40;;
68854;SDS011;69984;-43.570;172.580;2023-06-14T09:30:42;2.50;;;0.63;;
68854;SDS011;69984;-43.570;172.580;2023-06-14T09:33:09;2.63;;;0.75;;
68854;SDS011;69984;-43.570;172.580;2023-06-14T09:35:36;1.42;;;0.88;;
68854;SDS011;69984;-43.570;172.580;2023-06-14T09:38:03;1.95;;;0.98;;
68854;SDS011;69984;-43.570;172.580;2023-06-14T09:40:35;1.73;;;0.88;;
68854;SDS011;69984;-43.570;172.580;2023-06-14T09:43:04;2.83;;;1.13;;
68854;SDS011;69984;-43.570;172.580;2023-06-14T09:45:35;1.38;;;1.00;;
68854;SDS011;69984;-43.570;172.580;2023-06-14T09:48:06;1.92;;;0.88;;
68854;SDS011;69984;-43.570;172.580;2023-06-14T09:50:36;0.93;;;0.50;;
68854;SDS011;69984;-43.570;172.580;2023-06-14T09:53:07;0.95;;;0.70;;
68854;SDS011;69984;-43.570;172.580;2023-06-14T09:55:37;1.75;;;0.57;;
68854;SDS011;69984;-43.570;172.580;2023-06-14T10:00:34;1.02;;;0.95;;
68854;SDS011;69984;-43.570;172.580;2023-06-14T10:03:16;1.52;;;0.68;;
68854;SDS011;69984;-43.570;172.580;2023-06-14T10:05:50;0.70;;;0.57;;
68854;SDS011;69984;-43.570;172.580;2023-06-14T10:08:19;3.83;;;0.60;;
68854;SDS011;69984;-43.570;172.580;2023-06-14T10:13:23;2.05;;;0.73;;
68854;SDS011;69984;-43.570;172.580;2023-06-14T10:16:37;2.30;;;0.90;;
68854;SDS011;69984;-43.570;172.580;2023-06-14T10:24:44;2.00;;;0.85;;
68854;SDS011;69984;-43.570;172.580;2023-06-14T10:27:13;3.08;;;0.82;;
68854;SDS011;69984;-43.570;172.580;2023-06-14T10:32:22;2.00;;;0.77;;
68854;SDS011;69984;-43.570;172.580;2023-06-14T10:34:54;0.98;;;0.77;;
68854;SDS011;69984;-43.570;172.580;2023-06-14T10:37:23;6.72;;;1.33;;
68854;SDS011;69984;-43.570;172.580;2023-06-14T10:39:50;2.97;;;0.93;;
68854;SDS011;69984;-43.570;172.580;2023-06-14T10:42:19;2.65;;;1.48;;
68854;SDS011;69984;-43.570;172.580;2023-06-14T10:44:51;2.97;;;1.30;;
68854;SDS011;69984;-43.570;172.580;2023-06-14T10:47:31;1.83;;;1.00;;
68854;SDS011;69984;-43.570;172.580;2023-06-14T10:52:36;1.38;;;0.90;;
68854;SDS011;69984;-43.570;172.580;2023-06-14T10:57:52;2.35;;;0.80;;
68854;SDS011;69984;-43.570;172.580;2023-06-14T11:00:23;4.18;;;0.93;;
68854;SDS011;69984;-43.570;172.580;2023-06-14T11:10:54;3.28;;;1.00;;
68854;SDS011;69984;-43.570;172.580;2023-06-14T11:13:31;3.13;;;0.90;;
68854;SDS011;69984;-43.570;172.580;2023-06-14T11:15:59;1.25;;;0.70;;
68854;SDS011;69984;-43.570;172.580;2023-06-14T11:18:26;2.00;;;1.00;;
68854;SDS011;69984;-43.570;172.580;2023-06-14T11:20:55;2.33;;;0.80;;
68854;SDS011;69984;-43.570;172.580;2023-06-14T11:23:22;2.78;;;1.00;;
68854;SDS011;69984;-43.570;172.580;2023-06-14T11:25:53;3.63;;;0.60;;
68854;SDS011;69984;-43.570;172.580;2023-06-14T11:28:20;5.35;;;0.88;;
68854;SDS011;69984;-43.570;172.580;2023-06-14T11:30:59;5.10;;;0.77;;
68854;SDS011;69984;-43.570;172.580;2023-06-14T11:33:27;6.72;;;0.95;;
68854;SDS011;69984;-43.570;172.580;2023-06-14T11:35:54;3.30;;;0.77;;
68854;SDS011;69984;-43.570;172.580;2023-06-14T11:38:21;0.95;;;0.47;;
68854;SDS011;69984;-43.570;172.580;2023-06-14T11:40:48;4.53;;;1.00;;
68854;SDS011;69984;-43.570;172.580;2023-06-14T11:43:15;3.22;;;0.70;;
68854;SDS011;69984;-43.570;172.580;2023-06-14T11:45:43;3.58;;;0.57;;
68854;SDS011;69984;-43.570;172.580;2023-06-14T11:48:13;0.50;;;0.50;;
68854;SDS011;69984;-43.570;172.580;2023-06-14T11:50:40;1.38;;;0.70;;
68854;SDS011;69984;-43.570;172.580;2023-06-14T11:53:07;0.70;;;0.43;;
68854;SDS011;69984;-43.570;172.580;2023-06-14T11:55:36;1.35;;;0.25;;
68854;SDS011;69984;-43.570;172.580;2023-06-14T11:58:04;2.95;;;0.65;;
68854;SDS011;69984;-43.570;172.580;2023-06-14T12:00:32;1.77;;;0.47;;
68854;SDS011;69984;-43.570;172.580;2023-06-14T12:03:01;0.40;;;0.30;;
68854;SDS011;69984;-43.570;172.580;2023-06-14T12:05:28;2.00;;;0.20;;
68854;SDS011;69984;-43.570;172.580;2023-06-14T12:07:59;0.40;;;0.20;;
68854;SDS011;69984;-43.570;172.580;2023-06-14T12:10:28;4.07;;;0.60;;
68854;SDS011;69984;-43.570;172.580;2023-06-14T12:12:58;4.57;;;0.60;;
68854;SDS011;69984;-43.570;172.580;2023-06-14T12:15:28;1.30;;;0.60;;
68854;SDS011;69984;-43.570;172.580;2023-06-14T12:17:57;2.28;;;0.45;;
68854;SDS011;69984;-43.570;172.580;2023-06-14T12:20:28;1.17;;;0.45;;
68854;SDS011;69984;-43.570;172.580;2023-06-14T12:22:59;1.00;;;0.68;;
68854;SDS011;69984;-43.570;172.580;2023-06-14T12:25:36;0.68;;;0.43;;
68854;SDS011;69984;-43.570;172.580;2023-06-14T12:28:06;1.58;;;0.60;;
68854;SDS011;69984;-43.570;172.580;2023-06-14T12:30:35;0.95;;;0.63;;
68854;SDS011;69984;-43.570;172.580;2023-06-14T12:33:03;1.00;;;0.40;;
68854;SDS011;69984;-43.570;172.580;2023-06-14T12:35:31;1.45;;;0.60;;
68854;SDS011;69984;-43.570;172.580;2023-06-14T12:37:58;2.35;;;0.40;;
68854;SDS011;69984;-43.570;172.580;2023-06-14T12:40:26;4.57;;;0.73;;
68854;SDS011;69984;-43.570;172.580;2023-06-14T12:42:53;3.53;;;0.60;;
68854;SDS011;69984;-43.570;172.580;2023-06-14T12:45:20;0.45;;;0.30;;
68854;SDS011;69984;-43.570;172.580;2023-06-14T12:47:48;0.52;;;0.20;;
68854;SDS011;69984;-43.570;172.580;2023-06-14T12:50:15;1.98;;;0.20;;
68854;SDS011;69984;-43.570;172.580;2023-06-14T12:52:42;0.20;;;0.20;;
68854;SDS011;69984;-43.570;172.580;2023-06-14T12:55:09;1.35;;;0.30;;
68854;SDS011;69984;-43.570;172.580;2023-06-14T12:57:36;0.45;;;0.13;;
68854;SDS011;69984;-43.570;172.580;2023-06-14T13:00:03;0.30;;;0.20;;
68854;SDS011;69984;-43.570;172.580;2023-06-14T13:02:33;0.30;;;0.30;;
68854;SDS011;69984;-43.570;172.580;2023-06-14T13:05:00;1.08;;;0.30;;
68854;SDS011;69984;-43.570;172.580;2023-06-14T13:07:29;0.65;;;0.20;;
68854;SDS011;69984;-43.570;172.580;2023-06-14T13:09:56;3.20;;;0.40;;
68854;SDS011;69984;-43.570;172.580;2023-06-14T13:12:23;1.15;;;0.17;;
68854;SDS011;69984;-43.570;172.580;2023-06-14T13:14:50;1.67;;;0.22;;
68854;SDS011;69984;-43.570;172.580;2023-06-14T13:17:17;0.40;;;0.30;;
68854;SDS011;69984;-43.570;172.580;2023-06-14T13:19:45;0.52;;;0.10;;
68854;SDS011;69984;-43.570;172.580;2023-06-14T13:22:12;0.77;;;0.50;;
68854;SDS011;69984;-43.570;172.580;2023-06-14T13:24:39;2.53;;;0.20;;
68854;SDS011;69984;-43.570;172.580;2023-06-14T13:27:06;3.28;;;0.40;;
68854;SDS011;69984;-43.570;172.580;2023-06-14T13:29:33;2.42;;;0.40;;
68854;SDS011;69984;-43.570;172.580;2023-06-14T13:32:01;0.50;;;0.30;;
68854;SDS011;69984;-43.570;172.580;2023-06-14T13:34:29;1.75;;;0.40;;
68854;SDS011;69984;-43.570;172.580;2023-06-14T13:36:56;0.68;;;0.40;;
68854;SDS011;69984;-43.570;172.580;2023-06-14T13:39:25;0.93;;;0.30;;
68854;SDS011;69984;-43.570;172.580;2023-06-14T13:41:52;1.77;;;0.35;;
68854;SDS011;69984;-43.570;172.580;2023-06-14T13:44:19;1.35;;;0.20;;
68854;SDS011;69984;-43.570;172.580;2023-06-14T13:46:46;0.40;;;0.25;;
68854;SDS011;69984;-43.570;172.580;2023-06-14T13:49:13;2.15;;;0.40;;
68854;SDS011;69984;-43.570;172.580;2023-06-14T13:51:40;0.68;;;0.30;;
68854;SDS011;69984;-43.570;172.580;2023-06-14T13:54:07;0.25;;;0.15;;
68854;SDS011;69984;-43.570;172.580;2023-06-14T13:56:34;1.17;;;0.28;;
68854;SDS011;69984;-43.570;172.580;2023-06-14T13:59:01;2.17;;;0.30;;
68854;SDS011;69984;-43.570;172.580;2023-06-14T14:01:28;1.70;;;0.55;;
68854;SDS011;69984;-43.570;172.580;2023-06-14T14:03:55;0.63;;;0.30;;
68854;SDS011;69984;-43.570;172.580;2023-06-14T14:06:24;3.80;;;0.63;;
68854;SDS011;69984;-43.570;172.580;2023-06-14T14:08:51;1.75;;;0.45;;
68854;SDS011;69984;-43.570;172.580;2023-06-14T14:11:19;1.02;;;0.60;;
68854;SDS011;69984;-43.570;172.580;2023-06-14T14:13:46;2.88;;;0.57;;
68854;SDS011;69984;-43.570;172.580;2023-06-14T14:16:13;8.85;;;0.80;;
68854;SDS011;69984;-43.570;172.580;2023-06-14T14:18:40;2.83;;;0.65;;
68854;SDS011;69984;-43.570;172.580;2023-06-14T14:21:07;0.60;;;0.35;;
68854;SDS011;69984;-43.570;172.580;2023-06-14T14:23:35;4.22;;;0.40;;
68854;SDS011;69984;-43.570;172.580;2023-06-14T14:26:02;1.80;;;0.47;;
68854;SDS011;69984;-43.570;172.580;2023-06-14T14:28:30;0.82;;;0.40;;
68854;SDS011;69984;-43.570;172.580;2023-06-14T14:30:58;4.70;;;0.40;;
68854;SDS011;69984;-43.570;172.580;2023-06-14T14:33:25;3.03;;;0.47;;
68854;SDS011;69984;-43.570;172.580;2023-06-14T14:35:52;2.72;;;0.50;;
68854;SDS011;69984;-43.570;172.580;2023-06-14T14:38:19;3.38;;;1.20;;
68854;SDS011;69984;-43.570;172.580;2023-06-14T14:40:59;1.20;;;0.70;;
68854;SDS011;69984;-43.570;172.580;2023-06-14T14:43:26;3.20;;;0.50;;
68854;SDS011;69984;-43.570;172.580;2023-06-14T14:45:56;1.25;;;0.52;;
68854;SDS011;69984;-43.570;172.580;2023-06-14T14:48:23;1.25;;;0.43;;
68854;SDS011;69984;-43.570;172.580;2023-06-14T14:50:50;4.30;;;0.85;;
68854;SDS011;69984;-43.570;172.580;2023-06-14T14:53:17;3.72;;;1.02;;
68854;SDS011;69984;-43.570;172.580;2023-06-14T14:55:44;7.05;;;1.48;;
68854;SDS011;69984;-43.570;172.580;2023-06-14T14:58:12;4.03;;;1.15;;
68854;SDS011;69984;-43.570;172.580;2023-06-14T15:00:46;4.95;;;0.93;;
68854;SDS011;69984;-43.570;172.580;2023-06-14T15:03:13;3.80;;;0.68;;
68854;SDS011;69984;-43.570;172.580;2023-06-14T15:05:40;2.13;;;0.98;;